Lethbridge County Airport
CYQL : now visible

Airfield :











YOU CAN JOIN US ON...

 
LOGIN :

Register | Disclaimer

   EN    FR    IT 

 









Legend :    VFR   Marginal VFR   IFR   Intensive IFR   Very Intensive IFR
Visi :
Ceiling :
>= 8 km
>= 3000ft
5 to 8 km
1000 to 3000 ft
1500m to 5 km
500 to 1000 ft
800 to 1500m
200 to 500 ft
< 800m
< 200 ft
Symbols :   Thunderstorms  Fog  Heavy snow  Heavy precipitations  Wind > 20 kt






- Airport Elevation : 3047 ft
- IATA code : YQL


CYQL - Lethbridge County

CURRENT METAR :
  • 100600Z AUTO 30007KT 9SM CLR 10/M02 A2979 RMK SLP100 DENSITY ALT 3300FT

EXPIRED METARs :
  • 100500Z AUTO 14006KT 9SM CLR 05/M01 A2980 RMK SLP111
  • 100400Z 18005KT 150V230 25SM BKN280 08/M00 A2981 RMK CI6 LAST STFD OBS/NXT 101200Z SLP117 DENSITY ALT 3100FT

TAF TAF CYQL
Valid from the 10 at 06:00 until the 10 at 18:00 UTC


100547Z 1006/1018 14006KT P6SM BKN280
BECMG 1008/1010 26015KT
FM101100 32010KT P6SM BKN140
FM101400 35010KT P6SM SCT008 OVC015
TEMPO 1014/1017 6SM -SHRA BR BKN008
FM101700 35008KT P6SM -RA SCT012 OVC025
TEMPO 1017/1018 5SM -SHRA BR BKN012 RMK FCST BASED ON AUTO OBS. NXT FCST BY 101200Z



MET'MAP, your aeronautical weather chart ! - Copyright ORBIFLY December 2007 - Disclaimer

ORBIFLY MET'MAP TEAM :

Programming & Development : Alexandra Zaïnal
Concept & original design : Baudouin d'Aumeries
Assistance for programming : Marc-Olivier Méhu
Technical & hardware support : Manuel Goepfert

Contact : metmap@orbifly.com




SOURCES & CREDITS :

   NOAA       Earth
Advisory